ADDS METAR Data INFO
IDs: Format: Raw Decoded Include TAF

Data at: 1751 UTC 21 Oct 2017

KCHA 211653Z 00000KT 10SM SCT150 BKN250 23/12 A3029 RMK AO2 SLP254 T02280117
KCHA 211553Z 00000KT 10SM SCT150 BKN250 20/11 A3031 RMK AO2 SLP261 T02000106
KCHA 211453Z 00000KT 10SM FEW007 SCT150 BKN250 16/13 A3032 RMK AO2 SLP264 T01560128 51008
KCHA 211431Z 00000KT 5SM BCFG BR SCT002 SCT007 BKN150 14/13 A3032 RMK AO2 T01390128
KCHA 211414Z 00000KT 2SM R02/3500VP6000FT BCFG BR SCT002 BKN007 13/12 A3032 RMK AO2 T01330122
KCHA 211353Z 00000KT 1/4SM R02/2000V3500FT FG VV002 12/12 A3032 RMK AO2 SLP265 T01170117
KCHA 211351Z 26003KT 1/4SM R02/1800V3500FT FG VV002 12/12 A3032 RMK AO2 TWR VIS 1/4
KCHA 211300Z 00000KT 1/4SM R02/1400V1800FT FG VV002 11/11 A3030 RMK AO2 TWR VIS 1/4 T01060106
KCHA 211253Z 00000KT M1/4SM R02/1400V3000FT FG VV002 11/11 A3029 RMK AO2 TWR VIS 1 SLP256 T01060106
KCHA 211246Z 00000KT 1/4SM R02/1000V3000FT FG VV002 11/10 A3029 RMK AO2 TWR VIS 1 T01060100
KCHA 211228Z 00000KT 3/4SM R02/P6000FT BCFG BR OVC003 10/09 A3029 RMK AO2 TWR VIS 1 T01000089
KCHA 211214Z 00000KT 1 1/2SM BCFG BR BKN003 10/09 A3028 RMK AO2 T01000089
KCHA 211153Z 00000KT 3SM MIFG BR SCT003 BKN250 10/09 A3027 RMK AO2 SLP249 T01000089 10117 20094 53011
KCHA 211053Z 00000KT 7SM SCT003 BKN250 11/09 A3026 RMK AO2 SLP244 T01060089
KCHA 211044Z 00000KT 7SM SCT003 BKN250 10/09 A3026 RMK AO2 T01000089
KCHA 210953Z 00000KT 7SM BKN250 11/09 A3025 RMK AO2 SLP238 T01060094
KCHA 210853Z AUTO 00000KT 10SM CLR 11/09 A3024 RMK AO2 SLP235 T01110094 53006 TSNO
KCHA 210753Z AUTO 27003KT 10SM CLR 11/09 A3022 RMK AO2 SLP230 T01060094 TSNO
KCHA 210653Z AUTO 00000KT 10SM CLR 12/11 A3023 RMK AO2 SLP231 T01170106 TSNO
KCHA 210553Z AUTO 00000KT 10SM CLR 11/10 A3022 RMK AO2 SLP230 T01110100 10161 20111 57002 TSNO
KCHA 210453Z AUTO 00000KT 10SM CLR 12/10 A3022 RMK AO2 SLP230 T01170100 402500067 TSNO
KCHA 210353Z 00000KT 10SM FEW150 SCT250 12/11 A3023 RMK AO2 SLP232 LAST T01220106
KCHA 210253Z 00000KT 10SM SCT150 SCT250 13/12 A3023 RMK AO2 SLP234 T01280117 51008
KCHA 210153Z 00000KT 10SM SCT150 SCT250 14/12 A3022 RMK AO2 SLP232 T01390117
KCHA 210053Z 00000KT 10SM SCT150 SCT250 16/13 A3021 RMK AO2 SLP228 T01560128
KCHA 202353Z 00000KT 10SM SCT150 SCT250 17/13 A3020 RMK AO2 SLP225 T01670128 10250 20167 53003
KCHA 202253Z 00000KT 10SM SCT150 SCT250 20/12 A3018 RMK AO2 SLP219 T02000122
KCHA 202153Z 00000KT 10SM SCT150 SCT250 23/11 A3018 RMK AO2 SLP216 T02330106
KCHA 202053Z 06005KT 10SM SCT150 SCT250 25/10 A3019 RMK AO2 SLP220 T02500100 56024
KCHA 201953Z 09003KT 10SM SCT150 SCT250 24/09 A3021 RMK AO2 SLP226 T02440089
KCHA 201853Z 08005KT 10SM SCT150 SCT250 23/09 A3022 RMK AO2 SLP231 T02330094
KCHA 201753Z 02005KT 10SM SCT150 SCT250 22/09 A3026 RMK AO2 SLP245 T02220094 10222 20072 58024
KCHA 201653Z 00000KT 10SM SCT150 SCT250 20/09 A3029 RMK AO2 SLP255 T02000094
KCHA 201553Z 05004KT 10SM SCT150 SCT250 18/10 A3031 RMK AO2 SLP262 T01830100
KCHA 201453Z 00000KT 7SM FEW004 SCT150 SCT250 13/12 A3034 RMK AO2 SLP272 T01280117 50007
KCHA 201439Z 22003KT 3SM BCFG BR SCT004 SCT150 BKN250 12/11 A3034 RMK AO2 T01220111
KCHA 201417Z 00000KT 3/4SM R02/1600V4000FT BCFG BR BKN002 11/11 A3034 RMK AO2 T01110106
KCHA 201353Z 00000KT 1/4SM R02/0800V1000FT FG VV002 10/09 A3034 RMK A02 SLP273 T01000094
KCHA 201253Z COR 00000KT 1/2SM R02/1000V1400FT FG VV002 09/08 A3033 RMK SLPNO T000940084
KCHA 201153Z COR 00000KT 1/2SM R02/1800V3000FT FG VV002 07/07 A3032 RMK SLP252 T01110089
KCHA 201136Z 00000KT 1/4SM FG OVC002 08/07 A3031 RMK SLP252 T01110089
KCHA 201134Z 00000KT 1/4SM R02/1000VP6000FT FG VV002 07/07 A3032 RMK AO2 T00720067
KCHA 201128Z 00000KT 1 1/4SM R02/4000VP6000FT BR OVC003 08/07 A3032 RMK AO2 TWR VIS 2 VIS 1/2V5 T00780067
KCHA 201125Z 00000KT 1 1/2SM BCFG BR BKN003 11/09 A3028 RMK SLP252 T01110089
KCHA 201120Z 00000KT 5SM BKN003 11/09 A3028 RMK SLP252 T01110089
KCHA 201053Z COR 00000KT 7SM FEW005NSCT150 11/09 A3028 RMK LAST SLP252 T01110089
KCHA 201049Z AUTO 00000KT 10SM SCT003 07/06 A3031 RMK AO2
KCHA 200953Z AUTO 00000KT 10SM CLR 08/06 A3030 RMK AO2 SLP256 T00780061
KCHA 200853Z AUTO 00000KT 10SM CLR 08/07 A3028 RMK AO2 SLP251 T00780067 53001
KCHA 200753Z AUTO 00000KT 10SM CLR 08/07 A3028 RMK AO2 SLP249 T00830072
KCHA 200653Z AUTO 00000KT 10SM CLR 09/07 A3027 RMK AO2 SLP247 T00890072
KCHA 200553Z AUTO 00000KT 10SM CLR 09/08 A3028 RMK AO2 SLP250 T00940078 10156 20089 50003